createdAt,value
2022-09-04T00:00:02.530Z,16.1
2022-09-04T00:20:02.943Z,15.8
2022-09-04T00:40:02.372Z,15.5
2022-09-04T01:00:02.626Z,15.3
2022-09-04T01:20:02.319Z,15.1
2022-09-04T01:40:02.665Z,14.7
2022-09-04T02:00:03.057Z,14.4
2022-09-04T02:20:02.773Z,14.4
2022-09-04T02:40:03.206Z,14.2
2022-09-04T03:00:02.492Z,14
2022-09-04T03:20:02.916Z,13.8
2022-09-04T03:40:02.286Z,13.6
2022-09-04T04:00:02.776Z,13.3
2022-09-04T04:20:02.389Z,13.2
2022-09-04T04:40:02.778Z,12.9
2022-09-04T05:00:02.371Z,12.7
2022-09-04T05:20:02.702Z,12.8
2022-09-04T05:40:02.958Z,13.1
2022-09-04T06:00:02.385Z,13.6
2022-09-04T06:20:03.209Z,14.1
2022-09-04T06:40:02.737Z,14.8
2022-09-04T07:00:02.122Z,15.9
2022-09-04T07:20:02.876Z,17
2022-09-04T07:40:02.521Z,18.4
2022-09-04T08:00:02.931Z,20.1
2022-09-04T08:20:02.569Z,21.7
2022-09-04T08:40:02.834Z,23
2022-09-04T09:00:02.924Z,24.3
2022-09-04T09:20:02.687Z,25
2022-09-04T09:40:03.325Z,25.9
2022-09-04T10:00:03.039Z,26.4
2022-09-04T10:20:02.913Z,26.8
2022-09-04T10:40:02.359Z,26.8
2022-09-04T11:00:02.858Z,26.8
2022-09-04T11:20:02.658Z,27.1
2022-09-04T11:40:03.088Z,26.8
2022-09-04T12:00:02.696Z,26.9
2022-09-04T12:20:05.145Z,26.8
2022-09-04T12:40:02.324Z,26.5
2022-09-04T13:00:02.702Z,25.9
2022-09-04T13:20:02.750Z,25.1
2022-09-04T13:40:03.494Z,24.8
2022-09-04T14:00:06.363Z,24.4
2022-09-04T14:20:03.253Z,24.3
2022-09-04T14:40:03.999Z,24.2
2022-09-04T15:00:04.797Z,23.9
2022-09-04T15:20:04.235Z,23.8
2022-09-04T15:40:04.469Z,23.7
2022-09-04T16:00:03.536Z,23.6
2022-09-04T16:20:03.440Z,23.3
2022-09-04T16:40:02.994Z,23
2022-09-04T17:00:02.669Z,22.6
2022-09-04T17:20:03.449Z,22.3
2022-09-04T17:41:00.607Z,21.7
2022-09-04T18:00:02.325Z,21.1
2022-09-04T18:20:03.240Z,20.5
2022-09-04T18:40:02.817Z,20
2022-09-04T19:00:08.524Z,19.6
2022-09-04T19:20:02.447Z,19.3
2022-09-04T19:43:40.284Z,18.9
2022-09-04T20:00:06.181Z,18.6
2022-09-04T20:20:02.402Z,18.2
2022-09-04T20:40:02.962Z,17.9
2022-09-04T21:02:09.370Z,17.6
2022-09-04T21:20:02.629Z,17.3
2022-09-04T21:40:03.001Z,17
2022-09-04T22:02:33.608Z,16.7
2022-09-04T22:20:02.617Z,16.4
2022-09-04T22:40:03.107Z,16.2
2022-09-04T23:00:02.671Z,16.1
2022-09-04T23:23:45.667Z,16
2022-09-04T23:40:03.084Z,15.7
